createdAt,value
2023-01-11T00:01:44.350Z,101459.69
2023-01-11T00:04:12.946Z,101474.00
2023-01-11T00:06:41.409Z,101471.41
2023-01-11T00:09:10.049Z,101448.09
2023-01-11T00:11:38.434Z,101449.06
2023-01-11T00:14:07.001Z,101444.75
2023-01-11T00:16:35.490Z,101447.53
2023-01-11T00:19:05.340Z,101457.91
2023-01-11T00:21:33.937Z,101464.84
2023-01-11T00:24:02.358Z,101450.34
2023-01-11T00:26:30.842Z,101445.06
2023-01-11T00:28:59.280Z,101440.63
2023-01-11T00:31:27.936Z,101435.75
2023-01-11T00:33:56.414Z,101434.75
2023-01-11T00:36:26.365Z,101434.44
2023-01-11T00:38:55.595Z,101439.22
2023-01-11T00:41:42.356Z,101417.53
2023-01-11T00:44:29.153Z,101417.03
2023-01-11T00:47:15.208Z,101422.22
2023-01-11T00:49:44.352Z,101422.13
2023-01-11T00:52:14.256Z,101430.47
2023-01-11T00:54:43.768Z,101428.91
2023-01-11T00:57:12.209Z,101428.72
2023-01-11T00:59:40.792Z,101426.72
2023-01-11T01:02:10.104Z,101430.31
2023-01-11T01:04:39.198Z,101425.94
2023-01-11T01:07:08.305Z,101427.00
2023-01-11T01:09:38.213Z,101439.91
2023-01-11T01:12:07.236Z,101422.31
2023-01-11T01:14:34.912Z,101439.31
2023-01-11T01:17:04.816Z,101432.56
2023-01-11T01:19:35.142Z,101441.53
2023-01-11T01:22:06.088Z,101437.31
2023-01-11T01:24:34.735Z,101446.88
2023-01-11T01:27:04.709Z,101452.81
2023-01-11T01:29:33.243Z,101425.97
2023-01-11T01:32:04.699Z,101431.09
2023-01-11T01:34:37.606Z,101426.63
2023-01-11T01:37:06.282Z,101422.44
2023-01-11T01:39:35.424Z,101430.97
2023-01-11T01:42:06.151Z,101427.81
2023-01-11T01:44:59.964Z,101416.81
2023-01-11T01:47:47.929Z,101424.19
2023-01-11T01:50:19.588Z,101430.63
2023-01-11T01:52:53.198Z,101426.19
2023-01-11T01:55:28.086Z,101402.63
2023-01-11T01:58:00.591Z,101422.97
2023-01-11T02:00:29.310Z,101416.97
2023-01-11T02:03:00.267Z,101425.44
2023-01-11T02:05:28.991Z,101405.19
2023-01-11T02:08:01.521Z,101400.84
2023-01-11T02:10:30.181Z,101398.03
2023-01-11T02:13:05.203Z,101405.19
2023-01-11T02:15:34.047Z,101414.56
2023-01-11T02:18:02.525Z,101419.97
2023-01-11T02:20:46.202Z,101404.25
2023-01-11T02:23:51.378Z,101414.00
2023-01-11T02:26:44.502Z,101404.09
2023-01-11T02:29:25.661Z,101386.34
2023-01-11T02:32:06.006Z,101398.09
2023-01-11T02:34:42.756Z,101396.91
2023-01-11T02:37:23.352Z,101388.16
2023-01-11T02:40:01.315Z,101399.66
2023-01-11T02:42:56.485Z,101406.78
2023-01-11T02:45:39.912Z,101402.38
2023-01-11T02:48:19.419Z,101415.81
2023-01-11T02:50:55.083Z,101413.19
2023-01-11T02:53:32.370Z,101397.94
2023-01-11T02:56:11.408Z,101412.44
2023-01-11T02:58:45.102Z,101401.81
2023-01-11T03:01:16.493Z,101390.19
2023-01-11T03:03:45.008Z,101389.91
2023-01-11T03:06:17.018Z,101387.06
2023-01-11T03:09:09.181Z,101380.69
2023-01-11T03:12:08.609Z,101386.88
2023-01-11T03:14:49.077Z,101381.41
2023-01-11T03:17:28.684Z,101364.00
2023-01-11T03:20:02.828Z,101371.56
2023-01-11T03:22:39.519Z,101380.22
2023-01-11T03:25:19.195Z,101375.44
2023-01-11T03:27:53.834Z,101377.31
2023-01-11T03:30:30.818Z,101374.84
2023-01-11T03:33:04.757Z,101350.06
2023-01-11T03:35:39.990Z,101351.19
2023-01-11T03:38:17.299Z,101372.81
2023-01-11T03:40:50.187Z,101369.34
2023-01-11T03:43:22.230Z,101363.94
2023-01-11T03:45:54.176Z,101352.63
2023-01-11T03:48:29.095Z,101345.72
2023-01-11T03:50:58.894Z,101351.31
2023-01-11T03:53:31.600Z,101352.94
2023-01-11T03:56:03.055Z,101368.91
2023-01-11T03:58:31.769Z,101354.72
2023-01-11T04:01:00.752Z,101341.53
2023-01-11T04:03:30.980Z,101336.63
2023-01-11T04:06:02.505Z,101351.19
2023-01-11T04:08:32.324Z,101352.16
2023-01-11T04:11:01.038Z,101362.88
2023-01-11T04:13:29.423Z,101362.03
2023-01-11T04:15:58.033Z,101365.81
2023-01-11T04:18:26.509Z,101353.78
2023-01-11T04:20:57.003Z,101355.06
2023-01-11T04:23:25.517Z,101353.53
2023-01-11T04:25:54.543Z,101340.84
2023-01-11T04:28:23.039Z,101339.28
2023-01-11T04:30:51.498Z,101349.50
2023-01-11T04:33:20.093Z,101329.41
2023-01-11T04:35:50.046Z,101346.25
2023-01-11T04:38:20.128Z,101323.28
2023-01-11T04:40:49.291Z,101339.00
2023-01-11T04:43:16.655Z,101330.03
2023-01-11T04:45:45.269Z,101325.88
2023-01-11T04:48:13.763Z,101326.56
2023-01-11T04:50:42.304Z,101333.66
2023-01-11T04:53:10.711Z,101314.22
2023-01-11T04:55:40.627Z,101325.31
2023-01-11T04:58:09.078Z,101327.63
2023-01-11T05:00:37.588Z,101315.69
2023-01-11T05:03:06.052Z,101309.66
2023-01-11T05:05:34.566Z,101314.25
2023-01-11T05:08:03.068Z,101313.03
2023-01-11T05:10:33.467Z,101317.19
2023-01-11T05:13:03.369Z,101313.28
2023-01-11T05:15:31.984Z,101305.91
2023-01-11T05:18:00.604Z,101315.13
2023-01-11T05:20:29.137Z,101306.06
2023-01-11T05:22:57.513Z,101312.38
2023-01-11T05:25:26.015Z,101312.75
2023-01-11T05:27:54.430Z,101309.34
2023-01-11T05:30:24.242Z,101318.75
2023-01-11T05:32:52.731Z,101292.53
2023-01-11T05:35:21.226Z,101303.69
2023-01-11T05:37:49.683Z,101308.34
2023-01-11T05:40:18.531Z,101306.66
2023-01-11T05:42:47.637Z,101304.81
2023-01-11T05:45:32.077Z,101308.22
2023-01-11T05:48:02.556Z,101303.50
2023-01-11T05:50:31.497Z,101310.41
2023-01-11T05:53:00.066Z,101291.69
2023-01-11T05:55:28.665Z,101302.75
2023-01-11T05:57:57.052Z,101299.84
2023-01-11T06:00:25.721Z,101319.13
2023-01-11T06:02:54.366Z,101308.56
2023-01-11T06:05:24.313Z,101319.28
2023-01-11T06:07:52.806Z,101324.69
2023-01-11T06:10:21.253Z,101311.47
2023-01-11T06:13:13.389Z,101325.25
2023-01-11T06:15:42.004Z,101325.31
2023-01-11T06:18:10.631Z,101301.28
2023-01-11T06:20:40.495Z,101295.47
2023-01-11T06:23:09.079Z,101305.72
2023-01-11T06:25:38.487Z,101306.50
2023-01-11T06:28:07.068Z,101312.22
2023-01-11T06:30:35.610Z,101316.50
2023-01-11T06:33:06.927Z,101310.19
2023-01-11T06:35:38.363Z,101305.41
2023-01-11T06:38:09.437Z,101295.56
2023-01-11T06:40:38.777Z,101313.09
2023-01-11T06:43:07.861Z,101308.75
2023-01-11T06:45:38.326Z,101320.91
2023-01-11T06:48:07.536Z,101301.09
2023-01-11T06:50:36.002Z,101303.50
2023-01-11T06:53:04.490Z,101306.03
2023-01-11T06:55:34.297Z,101290.19
2023-01-11T06:58:02.757Z,101289.59
2023-01-11T07:00:31.340Z,101291.34
2023-01-11T07:03:03.360Z,101286.28
2023-01-11T07:05:33.316Z,101298.38
2023-01-11T07:08:02.026Z,101287.34
2023-01-11T07:10:30.833Z,101283.56
2023-01-11T07:13:00.781Z,101256.59
2023-01-11T07:15:29.626Z,101268.53
2023-01-11T07:17:59.264Z,101272.66
2023-01-11T07:20:28.373Z,101271.94
2023-01-11T07:22:58.542Z,101277.66
2023-01-11T07:25:27.864Z,101276.91
2023-01-11T07:28:02.073Z,101269.50
2023-01-11T07:30:32.544Z,101258.09
2023-01-11T07:33:02.156Z,101278.13
2023-01-11T07:35:30.674Z,101277.88
2023-01-11T07:37:59.017Z,101273.16
2023-01-11T07:40:27.543Z,101262.59
2023-01-11T07:43:15.175Z,101277.41
2023-01-11T07:45:47.055Z,101275.66
2023-01-11T07:48:20.810Z,101289.38
2023-01-11T07:50:49.844Z,101288.81
2023-01-11T07:53:19.093Z,101277.88
2023-01-11T07:55:47.597Z,101275.91
2023-01-11T07:58:16.977Z,101255.81
2023-01-11T08:00:46.996Z,101274.66
2023-01-11T08:03:15.913Z,101262.69
2023-01-11T08:05:44.491Z,101265.03
2023-01-11T08:08:13.029Z,101270.50
2023-01-11T08:10:42.253Z,101266.31
2023-01-11T08:13:31.684Z,101250.41
2023-01-11T08:16:01.717Z,101255.50
2023-01-11T08:18:30.213Z,101250.41
2023-01-11T08:20:58.559Z,101261.81
2023-01-11T08:23:27.296Z,101261.91
2023-01-11T08:25:58.133Z,101259.81
2023-01-11T08:28:26.723Z,101260.06
2023-01-11T08:30:55.291Z,101243.09
2023-01-11T08:33:25.269Z,101258.56
2023-01-11T08:35:53.742Z,101246.38
2023-01-11T08:38:22.360Z,101254.72
2023-01-11T08:40:50.818Z,101237.88
2023-01-11T08:43:19.552Z,101248.38
2023-01-11T08:45:48.228Z,101234.94
2023-01-11T08:48:16.664Z,101228.69
2023-01-11T08:50:46.779Z,101239.28
2023-01-11T08:53:15.909Z,101230.97
2023-01-11T08:55:44.783Z,101232.38
2023-01-11T08:58:13.457Z,101233.44
2023-01-11T09:00:41.907Z,101219.66
2023-01-11T09:03:12.135Z,101205.09
2023-01-11T09:05:41.566Z,101212.63
2023-01-11T09:08:11.786Z,101211.19
2023-01-11T09:10:40.334Z,101229.34
2023-01-11T09:13:08.839Z,101219.03
2023-01-11T09:15:37.387Z,101223.09
2023-01-11T09:18:06.217Z,101213.06
2023-01-11T09:20:34.884Z,101204.25
2023-01-11T09:23:03.419Z,101204.94
2023-01-11T09:25:33.504Z,101201.28
2023-01-11T09:28:02.244Z,101213.81
2023-01-11T09:30:31.358Z,101199.63
2023-01-11T09:32:59.991Z,101200.47
2023-01-11T09:35:28.495Z,101206.56
2023-01-11T09:37:58.554Z,101191.53
2023-01-11T09:40:35.521Z,101197.44
2023-01-11T09:43:08.024Z,101193.25
2023-01-11T09:45:37.367Z,101192.69
2023-01-11T09:48:15.554Z,101182.50
2023-01-11T09:50:48.791Z,101192.56
2023-01-11T09:53:24.444Z,101186.38
2023-01-11T09:55:54.300Z,101165.16
2023-01-11T09:58:46.789Z,101180.50
2023-01-11T10:01:22.074Z,101164.19
2023-01-11T10:04:33.036Z,101164.00
2023-01-11T10:07:26.521Z,101164.41
2023-01-11T10:18:29.797Z,101147.53
2023-01-11T10:22:00.295Z,101156.16
2023-01-11T10:24:34.435Z,101146.72
2023-01-11T10:27:06.040Z,101150.16
2023-01-11T10:29:53.840Z,101142.38
2023-01-11T10:32:54.304Z,101144.16
2023-01-11T10:35:48.102Z,101116.78
2023-01-11T10:38:43.451Z,101131.19
2023-01-11T10:41:26.152Z,101125.97
2023-01-11T10:44:06.526Z,101105.13
2023-01-11T10:46:39.935Z,101118.22
2023-01-11T10:49:35.934Z,101061.69
2023-01-11T10:52:18.790Z,101099.53
2023-01-11T10:54:53.411Z,101107.22
2023-01-11T10:57:34.708Z,101102.19
2023-01-11T11:00:23.139Z,101097.03
2023-01-11T11:03:08.614Z,101089.28
2023-01-11T11:05:46.202Z,101078.19
2023-01-11T11:08:26.604Z,101062.75
2023-01-11T11:11:01.255Z,101082.44
2023-01-11T11:13:43.313Z,101073.00
2023-01-11T11:16:31.797Z,101080.75
2023-01-11T11:19:00.782Z,101088.41
2023-01-11T11:21:34.715Z,101072.22
2023-01-11T11:24:09.467Z,101073.91
2023-01-11T11:26:42.034Z,101073.06
2023-01-11T11:29:14.709Z,101061.88
2023-01-11T11:31:47.205Z,101052.50
2023-01-11T11:34:19.335Z,101052.50
2023-01-11T11:36:51.599Z,101050.81
2023-01-11T11:39:22.956Z,101047.38
2023-01-11T11:41:53.649Z,101049.91
2023-01-11T11:44:24.948Z,101054.25
2023-01-11T11:47:01.303Z,101047.31
2023-01-11T11:49:31.699Z,101056.63
2023-01-11T11:52:03.776Z,101044.78
2023-01-11T11:54:35.305Z,101045.66
2023-01-11T11:57:16.884Z,101031.09
2023-01-11T11:59:50.723Z,101036.22
2023-01-11T12:02:26.518Z,101029.38
2023-01-11T12:04:56.782Z,101009.66
2023-01-11T12:07:30.978Z,101017.34
2023-01-11T12:10:03.206Z,101025.97
2023-01-11T12:12:34.681Z,101020.84
2023-01-11T12:15:18.462Z,101014.84
2023-01-11T12:17:47.374Z,101030.19
2023-01-11T12:20:33.632Z,101013.97
2023-01-11T12:23:18.142Z,101010.56
2023-01-11T12:25:57.712Z,101001.13
2023-01-11T12:28:41.778Z,101013.13
2023-01-11T12:31:19.200Z,101004.56
2023-01-11T12:33:56.166Z,100997.72
2023-01-11T12:36:33.715Z,101000.28
2023-01-11T12:39:15.297Z,101012.22
2023-01-11T12:42:00.393Z,101012.25
2023-01-11T12:44:43.844Z,101014.81
2023-01-11T12:47:34.833Z,101010.53
2023-01-11T12:50:16.697Z,101013.13
2023-01-11T12:53:00.965Z,101008.75
2023-01-11T12:55:50.334Z,101007.09
2023-01-11T12:58:25.478Z,100990.84
2023-01-11T13:01:27.597Z,100990.88
2023-01-11T13:04:21.586Z,100997.72
2023-01-11T13:07:00.348Z,101004.56
2023-01-11T13:09:40.152Z,100995.94
2023-01-11T13:12:16.880Z,100999.44
2023-01-11T13:15:06.434Z,100989.13
2023-01-11T13:17:45.925Z,100992.59
2023-01-11T13:20:28.839Z,100990.00
2023-01-11T13:23:03.243Z,100987.38
2023-01-11T13:25:36.616Z,100983.16
2023-01-11T13:28:23.870Z,100987.41
2023-01-11T13:30:53.543Z,100989.97
2023-01-11T13:33:24.793Z,100974.59
2023-01-11T13:35:59.090Z,100984.03
2023-01-11T13:38:35.881Z,100989.06
2023-01-11T13:41:15.476Z,100990.00
2023-01-11T13:43:52.413Z,100995.94
2023-01-11T13:46:26.754Z,100993.38
2023-01-11T13:49:01.800Z,100995.97
2023-01-11T13:51:37.493Z,100995.06
2023-01-11T13:54:13.213Z,100998.47
2023-01-11T13:56:44.049Z,100994.13
2023-01-11T13:59:18.832Z,100984.78
2023-01-11T14:01:54.782Z,100993.28
2023-01-11T14:04:31.813Z,100985.59
2023-01-11T14:07:15.234Z,100974.59
2023-01-11T14:10:10.156Z,100975.47
2023-01-11T14:12:56.828Z,100970.25
2023-01-11T14:15:33.825Z,100972.78
2023-01-11T14:18:16.602Z,100976.31
2023-01-11T14:20:53.094Z,100964.19
2023-01-11T14:23:23.710Z,100983.16
2023-01-11T14:26:12.658Z,100994.03
2023-01-11T14:28:57.351Z,100987.97
2023-01-11T14:31:51.261Z,100985.31
2023-01-11T14:34:48.164Z,100977.78
2023-01-11T14:37:50.646Z,100983.78
2023-01-11T14:40:40.847Z,100980.59
2023-01-11T14:43:38.420Z,100987.38
2023-01-11T14:46:26.387Z,100984.88
2023-01-11T14:49:09.935Z,100983.94
2023-01-11T14:51:54.460Z,100971.09
2023-01-11T14:54:28.847Z,100987.38
2023-01-11T14:56:58.673Z,100978.72
2023-01-11T14:59:40.383Z,100978.88
2023-01-11T15:02:27.606Z,100999.41
2023-01-11T15:05:10.298Z,100978.88
2023-01-11T15:07:44.420Z,100968.59
2023-01-11T15:10:46.080Z,100969.44
2023-01-11T15:13:20.070Z,100977.06
2023-01-11T15:16:07.173Z,100964.22
2023-01-11T15:18:45.140Z,100961.75
2023-01-11T15:21:20.246Z,100955.78
2023-01-11T15:23:54.470Z,100945.47
2023-01-11T15:26:25.280Z,100955.75
2023-01-11T15:28:56.790Z,100957.47
2023-01-11T15:31:39.165Z,100950.50
2023-01-11T15:34:41.831Z,100963.47
2023-01-11T15:37:41.828Z,100948.91
2023-01-11T15:40:20.371Z,100954.03
2023-01-11T15:43:16.056Z,100960.91
2023-01-11T15:46:30.386Z,100968.59
2023-01-11T15:49:27.637Z,100967.72
2023-01-11T15:52:22.040Z,100970.31
2023-01-11T15:55:21.216Z,100976.31
2023-01-11T15:58:15.047Z,100972.88
2023-01-11T16:01:09.514Z,100974.59
2023-01-11T16:04:15.928Z,100966.03
2023-01-11T16:06:48.771Z,100965.19
2023-01-11T16:09:46.253Z,100953.19
2023-01-11T16:12:45.936Z,100945.47
2023-01-11T16:15:30.404Z,100922.38
2023-01-11T16:18:06.570Z,100927.50
2023-01-11T16:20:36.772Z,100926.63
2023-01-11T16:23:07.552Z,100909.53
2023-01-11T16:25:43.651Z,100910.41
2023-01-11T16:28:18.235Z,100924.09
2023-01-11T16:30:48.206Z,100918.09
2023-01-11T16:33:21.216Z,100907.84
2023-01-11T16:35:51.230Z,100893.22
2023-01-11T16:38:23.413Z,100897.56
2023-01-11T16:40:55.097Z,100909.53
2023-01-11T16:43:28.082Z,100913.78
2023-01-11T16:45:57.107Z,100901.81
2023-01-11T16:48:27.370Z,100894.00
2023-01-11T16:51:02.713Z,100887.28
2023-01-11T16:53:32.456Z,100896.56
2023-01-11T16:56:05.910Z,100896.69
2023-01-11T16:58:37.938Z,100897.50
2023-01-11T17:01:09.223Z,100902.63
2023-01-11T17:03:43.187Z,100890.72
2023-01-11T17:06:18.844Z,100888.97
2023-01-11T17:08:52.698Z,100888.75
2023-01-11T17:11:29.892Z,100882.13
2023-01-11T17:14:43.409Z,100878.56
2023-01-11T17:17:14.436Z,100884.44
2023-01-11T17:19:48.658Z,100886.84
2023-01-11T17:22:24.994Z,100872.59
2023-01-11T17:24:58.415Z,100858.16
2023-01-11T17:27:30.854Z,100846.19
2023-01-11T17:30:00.666Z,100855.56
2023-01-11T17:32:40.042Z,100848.56
2023-01-11T17:35:16.991Z,100857.97
2023-01-11T17:37:47.589Z,100861.44
2023-01-11T17:40:24.199Z,100867.06
2023-01-11T17:43:10.913Z,100866.25
2023-01-11T17:45:40.069Z,100864.59
2023-01-11T17:48:16.062Z,100864.50
2023-01-11T17:50:49.842Z,100846.88
2023-01-11T17:53:22.419Z,100846.03
2023-01-11T17:55:53.797Z,100846.16
2023-01-11T17:58:27.522Z,100836.78
2023-01-11T18:01:19.013Z,100817.75
2023-01-11T18:03:51.152Z,100840.16
2023-01-11T18:06:28.389Z,100828.66
2023-01-11T18:09:00.811Z,100822.84
2023-01-11T18:11:32.688Z,100821.31
2023-01-11T18:14:04.760Z,100825.34
2023-01-11T18:16:34.505Z,100821.75
2023-01-11T18:19:27.625Z,100820.19
2023-01-11T18:21:58.493Z,100811.84
2023-01-11T18:24:43.533Z,100816.00
2023-01-11T18:27:30.188Z,100822.59
2023-01-11T18:30:02.727Z,100834.56
2023-01-11T18:32:37.483Z,100827.13
2023-01-11T18:35:18.525Z,100810.78
2023-01-11T18:37:50.515Z,100816.03
2023-01-11T18:40:20.358Z,100832.97
2023-01-11T18:42:53.993Z,100836.31
2023-01-11T18:45:25.129Z,100852.41
2023-01-11T18:47:54.067Z,100844.44
2023-01-11T18:50:24.548Z,100844.03
2023-01-11T18:52:53.544Z,100833.16
2023-01-11T18:55:22.219Z,100849.69
2023-01-11T18:57:51.324Z,100848.69
2023-01-11T19:00:21.114Z,100841.94
2023-01-11T19:05:20.806Z,100863.00
2023-01-11T19:07:50.718Z,100855.03
2023-01-11T19:10:21.966Z,100847.72
2023-01-11T19:12:52.503Z,100849.28
2023-01-11T19:15:21.491Z,100839.72
2023-01-11T19:17:50.796Z,100837.81
2023-01-11T19:20:19.537Z,100842.38
2023-01-11T19:22:49.049Z,100854.28
2023-01-11T19:25:20.964Z,100839.16
2023-01-11T19:27:50.526Z,100843.88
2023-01-11T19:30:20.344Z,100846.97
2023-01-11T19:32:53.188Z,100847.97
2023-01-11T19:35:23.919Z,100852.94
2023-01-11T19:37:53.032Z,100860.22
2023-01-11T19:40:23.878Z,100851.25
2023-01-11T19:42:53.548Z,100849.63
2023-01-11T19:45:22.863Z,100848.03
2023-01-11T19:47:52.130Z,100847.47
2023-01-11T19:50:20.881Z,100846.59
2023-01-11T19:52:51.854Z,100838.00
2023-01-11T19:55:20.709Z,100811.63
2023-01-11T19:57:52.963Z,100825.09
2023-01-11T20:00:22.588Z,100823.13
2023-01-11T20:02:52.129Z,100818.53
2023-01-11T20:05:21.285Z,100809.91
2023-01-11T20:07:50.569Z,100812.56
2023-01-11T20:10:21.625Z,100803.66
2023-01-11T20:12:56.695Z,100820.00
2023-01-11T20:15:25.344Z,100821.59
2023-01-11T20:17:53.919Z,100817.97
2023-01-11T20:20:23.160Z,100821.00
2023-01-11T20:22:54.773Z,100809.84
2023-01-11T20:25:24.385Z,100806.94
2023-01-11T20:27:52.995Z,100809.88
2023-01-11T20:30:23.415Z,100811.22
2023-01-11T20:32:56.240Z,100806.81
2023-01-11T20:35:27.442Z,100831.22
2023-01-11T20:37:56.276Z,100818.63
2023-01-11T20:40:25.141Z,100820.56
2023-01-11T20:42:54.532Z,100813.34
2023-01-11T20:45:24.940Z,100800.31
2023-01-11T20:47:53.915Z,100815.91
2023-01-11T20:50:22.946Z,100803.97
2023-01-11T20:52:51.721Z,100802.72
2023-01-11T20:55:22.180Z,100804.84
2023-01-11T20:57:51.779Z,100802.91
2023-01-11T21:00:21.764Z,100806.38
2023-01-11T21:02:52.552Z,100798.44
2023-01-11T21:05:21.873Z,100791.31
2023-01-11T21:07:50.290Z,100784.22
2023-01-11T21:10:19.020Z,100797.34
2023-01-11T21:12:51.092Z,100793.59
2023-01-11T21:15:20.542Z,100790.09
2023-01-11T21:17:49.696Z,100794.94
2023-01-11T21:20:20.044Z,100802.91
2023-01-11T21:22:48.847Z,100795.88
2023-01-11T21:25:17.961Z,100786.16
2023-01-11T21:27:47.248Z,100802.66
2023-01-11T21:30:16.479Z,100797.03
2023-01-11T21:32:45.312Z,100792.34
2023-01-11T21:35:14.370Z,100794.38
2023-01-11T21:37:47.291Z,100787.25
2023-01-11T21:40:16.742Z,100773.63
2023-01-11T21:42:46.029Z,100778.00
2023-01-11T21:45:15.438Z,100770.75
2023-01-11T21:47:46.352Z,100758.47
2023-01-11T21:50:15.777Z,100767.28
2023-01-11T21:52:46.526Z,100776.19
2023-01-11T21:55:15.499Z,100759.72
2023-01-11T21:57:44.324Z,100778.38
2023-01-11T22:00:14.843Z,100780.25
2023-01-11T22:02:44.060Z,100780.09
2023-01-11T22:05:13.197Z,100764.56
2023-01-11T22:07:43.731Z,100780.50
2023-01-11T22:10:15.384Z,100783.38
2023-01-11T22:12:46.756Z,100777.56
2023-01-11T22:15:16.091Z,100782.72
2023-01-11T22:17:51.068Z,100789.16
2023-01-11T22:20:23.300Z,100789.25
2023-01-11T22:22:52.582Z,100789.19
2023-01-11T22:25:23.298Z,100780.13
2023-01-11T22:27:52.987Z,100768.94
2023-01-11T22:30:22.594Z,100773.78
2023-01-11T22:32:51.524Z,100768.13
2023-01-11T22:35:20.703Z,100775.16
2023-01-11T22:37:50.326Z,100768.09
2023-01-11T22:40:19.473Z,100760.59
2023-01-11T22:42:49.735Z,100764.78
2023-01-11T22:45:19.012Z,100761.03
2023-01-11T22:47:52.002Z,100752.63
2023-01-11T22:50:22.443Z,100758.81
2023-01-11T22:52:51.356Z,100753.00
2023-01-11T22:55:20.192Z,100749.38
2023-01-11T22:57:51.277Z,100740.34
2023-01-11T23:00:23.683Z,100741.22
2023-01-11T23:02:53.344Z,100746.38
2023-01-11T23:05:22.766Z,100738.81
2023-01-11T23:07:52.114Z,100728.03
2023-01-11T23:10:23.127Z,100743.66
2023-01-11T23:13:10.956Z,100730.69
2023-01-11T23:15:40.967Z,100728.00
2023-01-11T23:18:10.912Z,100733.69
2023-01-11T23:20:39.940Z,100731.03
2023-01-11T23:23:11.102Z,100716.78
2023-01-11T23:25:40.541Z,100713.41
2023-01-11T23:28:11.171Z,100715.13
2023-01-11T23:30:42.600Z,100727.44
2023-01-11T23:33:11.332Z,100713.38
2023-01-11T23:35:40.639Z,100721.00
2023-01-11T23:38:09.094Z,100728.50
2023-01-11T23:40:57.971Z,100720.06
2023-01-11T23:43:26.874Z,100722.81
2023-01-11T23:46:15.329Z,100722.75
2023-01-11T23:48:42.961Z,100701.03
2023-01-11T23:51:11.343Z,100726.31
2023-01-11T23:53:39.665Z,100716.34
2023-01-11T23:56:08.625Z,100721.47
2023-01-11T23:58:38.472Z,100720.84
